Time;durP1;ratioP1;P1;durP2;ratioP2;P2;SDS_P1;SDS_P2;PMS_P1;PMS_P2;Temp;Humidity;BMP_temperature;BMP_pressure;BME280_temperature;BME280_humidity;BME280_pressure;Samples;Min_cycle;Max_cycle;Signal;HPM_P1;HPM_P2
2023/11/27 00:00:26;;;;;;;0.40;0.40;;;;;;;-0.06;100.00;97172.06;5091523;28;20026;-77
2023/11/27 00:02:52;;;;;;;0.38;0.38;;;;;;;-0.09;100.00;97182.66;5074853;28;20023;-76
2023/11/27 00:05:18;;;;;;;0.30;0.30;;;;;;;-0.14;100.00;97184.53;5102234;28;20035;-76
2023/11/27 00:07:44;;;;;;;1.67;0.82;;;;;;;-0.19;100.00;97181.19;5112956;28;20462;-76
2023/11/27 00:10:10;;;;;;;0.30;0.30;;;;;;;-0.16;100.00;97186.38;5094748;28;20043;-76
2023/11/27 00:12:35;;;;;;;0.80;0.68;;;;;;;-0.22;100.00;97178.63;5111703;28;20118;-76
2023/11/27 00:15:01;;;;;;;0.35;0.35;;;;;;;-0.20;100.00;97184.72;5111873;28;20028;-76
2023/11/27 00:17:27;;;;;;;1.38;1.33;;;;;;;-0.25;100.00;97179.59;5094799;28;20558;-76
2023/11/27 00:19:53;;;;;;;0.77;0.77;;;;;;;-0.18;100.00;97175.88;5095881;28;20020;-77
2023/11/27 00:22:19;;;;;;;0.70;0.70;;;;;;;-0.13;100.00;97196.78;5093193;28;20047;-76
2023/11/27 00:24:45;;;;;;;0.40;0.40;;;;;;;-0.24;100.00;97189.16;5091030;28;20030;-77
2023/11/27 00:27:11;;;;;;;0.73;0.73;;;;;;;-0.18;100.00;97198.66;5091209;28;20055;-76
2023/11/27 00:29:37;;;;;;;0.30;0.30;;;;;;;-0.19;100.00;97189.06;5099355;28;20064;-77
2023/11/27 00:32:03;;;;;;;0.90;0.90;;;;;;;-0.27;100.00;97191.00;5092259;28;20089;-77
2023/11/27 00:34:30;;;;;;;0.30;0.30;;;;;;;-0.31;100.00;97192.00;5099031;28;20027;-77
2023/11/27 00:36:55;;;;;;;1.52;1.42;;;;;;;-0.36;100.00;97196.50;5111211;28;20023;-77
2023/11/27 00:39:21;;;;;;;2.35;1.45;;;;;;;-0.41;100.00;97186.13;5094322;28;20064;-76
2023/11/27 00:41:46;;;;;;;0.52;0.52;;;;;;;-0.48;100.00;97183.66;5093959;28;20057;-76
2023/11/27 00:44:14;;;;;;;0.60;0.60;;;;;;;-0.47;100.00;97185.41;5111312;28;20038;-77
2023/11/27 00:46:39;;;;;;;0.50;0.50;;;;;;;-0.45;100.00;97186.22;5097840;28;20027;-77
2023/11/27 00:49:05;;;;;;;0.30;0.30;;;;;;;-0.48;100.00;97194.16;5073294;28;20487;-76
2023/11/27 00:51:31;;;;;;;1.75;0.80;;;;;;;-0.47;100.00;97198.53;5090518;28;20028;-76
2023/11/27 00:53:56;;;;;;;0.88;0.88;;;;;;;-0.51;100.00;97197.75;5073513;28;20085;-76
2023/11/27 00:56:22;;;;;;;0.30;0.30;;;;;;;-0.42;100.00;97213.28;5091710;28;20111;-77
2023/11/27 00:58:48;;;;;;;0.50;0.50;;;;;;;-0.40;100.00;97203.59;5090356;28;20039;-77
2023/11/27 01:01:14;;;;;;;0.40;0.40;;;;;;;-0.33;100.00;97199.91;5090489;28;20028;-77
2023/11/27 01:03:39;;;;;;;0.70;0.70;;;;;;;-0.23;100.00;97221.56;5073168;28;20024;-77
2023/11/27 01:06:14;;;;;;;0.82;0.82;;;;;;;-0.16;100.00;97218.75;5090296;28;20501;-77
2023/11/27 01:08:40;;;;;;;1.35;1.25;;;;;;;-0.13;100.00;97213.44;5072965;28;20115;-78
2023/11/27 01:11:06;;;;;;;0.65;0.65;;;;;;;-0.03;100.00;97216.66;5090112;28;20475;-77
2023/11/27 01:13:31;;;;;;;0.63;0.63;;;;;;;0.02;100.00;97209.53;5090105;28;20092;-77
2023/11/27 01:15:57;;;;;;;0.28;0.28;;;;;;;0.07;100.00;97210.28;5089964;28;20483;-77
2023/11/27 01:18:23;;;;;;;0.70;0.70;;;;;;;0.10;100.00;97210.19;5090274;28;20038;-78
2023/11/27 01:20:49;;;;;;;0.38;0.38;;;;;;;0.16;100.00;97215.28;5073064;28;20024;-77
2023/11/27 01:23:14;;;;;;;6.93;0.93;;;;;;;0.16;100.00;97217.91;5090072;28;20043;-77
2023/11/27 01:25:40;;;;;;;1.58;1.02;;;;;;;0.23;100.00;97224.75;5091375;28;20054;-77
2023/11/27 01:28:06;;;;;;;0.70;0.70;;;;;;;0.29;100.00;97229.84;5091222;28;20038;-77
2023/11/27 01:30:32;;;;;;;1.02;0.95;;;;;;;0.27;100.00;97215.88;5089912;28;20036;-77
2023/11/27 01:32:58;;;;;;;0.82;0.82;;;;;;;0.32;100.00;97219.22;5090973;28;20039;-77
2023/11/27 01:35:23;;;;;;;0.30;0.30;;;;;;;0.27;100.00;97215.00;5090192;28;20020;-77
2023/11/27 01:37:49;;;;;;;0.30;0.30;;;;;;;0.32;100.00;97231.50;5090018;28;20475;-77
2023/11/27 01:40:15;;;;;;;0.60;0.60;;;;;;;0.23;100.00;97224.75;5091349;28;20084;-77
2023/11/27 01:42:40;;;;;;;0.88;0.88;;;;;;;0.14;100.00;97229.38;5091141;28;20035;-77
2023/11/27 01:45:07;;;;;;;0.20;0.20;;;;;;;0.18;100.00;97234.53;5084121;28;20039;-76
2023/11/27 01:47:33;;;;;;;0.38;0.38;;;;;;;0.23;100.00;97234.41;5072965;28;20039;-77
2023/11/27 01:49:59;;;;;;;0.30;0.30;;;;;;;0.17;100.00;97237.19;5105809;28;20039;-76
2023/11/27 01:52:26;;;;;;;0.93;0.88;;;;;;;0.11;100.00;97234.72;5113730;28;20034;-76
2023/11/27 01:54:52;;;;;;;1.30;0.63;;;;;;;0.11;100.00;97240.84;5087918;28;20031;-76
2023/11/27 01:57:20;;;;;;;0.43;0.43;;;;;;;0.03;100.00;97240.19;5119259;28;20127;-76
2023/11/27 01:59:46;;;;;;;0.40;0.40;;;;;;;0.05;100.00;97234.88;5076230;28;20027;-77
2023/11/27 02:02:15;;;;;;;0.22;0.22;;;;;;;-0.03;100.00;97230.66;5092944;28;20030;-77
2023/11/27 02:04:41;;;;;;;0.40;0.40;;;;;;;-0.04;100.00;97220.22;5111287;28;20022;-77
2023/11/27 02:07:07;;;;;;;0.43;0.43;;;;;;;-0.02;100.00;97234.16;5078355;28;20115;-77
2023/11/27 02:09:33;;;;;;;0.77;0.65;;;;;;;-0.03;100.00;97235.06;5107546;28;20019;-77
2023/11/27 02:11:58;;;;;;;0.45;0.45;;;;;;;-0.04;100.00;97230.72;5075956;28;20084;-76
2023/11/27 02:14:24;;;;;;;0.38;0.38;;;;;;;-0.07;100.00;97233.44;5076087;28;20024;-77
2023/11/27 02:16:50;;;;;;;0.20;0.20;;;;;;;-0.07;100.00;97228.16;5081495;28;20068;-78
2023/11/27 02:19:16;;;;;;;0.30;0.30;;;;;;;-0.10;100.00;97236.13;5092810;28;20020;-78
2023/11/27 02:21:42;;;;;;;1.48;1.38;;;;;;;-0.11;100.00;97221.25;5103056;27;20394;-77
2023/11/27 02:24:08;;;;;;;0.65;0.65;;;;;;;-0.08;100.00;97229.94;5093114;27;20035;-78
2023/11/27 02:26:34;;;;;;;0.30;0.30;;;;;;;-0.02;100.00;97231.53;5100468;27;20608;-77
2023/11/27 02:28:59;;;;;;;0.43;0.43;;;;;;;-0.04;100.00;97225.47;5099511;28;20517;-78
2023/11/27 02:31:25;;;;;;;0.35;0.35;;;;;;;0.04;100.00;97225.25;5102463;28;20020;-76
2023/11/27 02:33:51;;;;;;;0.30;0.30;;;;;;;0.03;100.00;97218.28;5079767;28;20042;-77
2023/11/27 02:36:19;;;;;;;0.70;0.70;;;;;;;0.09;100.00;97234.78;5107765;27;20035;-78
2023/11/27 02:38:45;;;;;;;0.40;0.40;;;;;;;0.10;100.00;97223.34;5117097;27;20087;-76
2023/11/27 02:41:11;;;;;;;0.30;0.30;;;;;;;0.09;100.00;97219.00;5106542;28;20023;-76
2023/11/27 02:43:36;;;;;;;1.23;1.15;;;;;;;0.14;100.00;97227.63;5120052;27;20478;-77
2023/11/27 02:46:02;;;;;;;0.25;0.25;;;;;;;0.09;100.00;97239.16;5082308;28;20084;-77
2023/11/27 02:48:28;;;;;;;1.13;0.85;;;;;;;0.19;100.00;97246.75;5111399;27;20470;-78
2023/11/27 02:50:53;;;;;;;0.40;0.40;;;;;;;0.22;100.00;97241.41;5132131;27;20076;-78
2023/11/27 02:53:19;;;;;;;0.38;0.38;;;;;;;0.27;100.00;97238.69;5099513;27;20119;-78
2023/11/27 02:55:45;;;;;;;0.68;0.55;;;;;;;0.22;100.00;97241.41;5116960;27;20031;-78
2023/11/27 02:58:11;;;;;;;0.20;0.20;;;;;;;0.20;100.00;97248.50;5116601;27;20027;-77
2023/11/27 03:00:37;;;;;;;0.20;0.20;;;;;;;0.18;100.00;97237.16;5105466;27;20076;-77
2023/11/27 03:03:03;;;;;;;0.32;0.32;;;;;;;0.22;100.00;97251.06;5116600;27;20497;-77
2023/11/27 03:05:29;;;;;;;0.25;0.25;;;;;;;0.19;100.00;97252.00;5099678;27;20035;-76
2023/11/27 03:07:55;;;;;;;0.65;0.65;;;;;;;0.29;100.00;97261.41;5108155;27;20023;-77
2023/11/27 03:10:21;;;;;;;0.50;0.50;;;;;;;0.23;100.00;97276.47;5099053;27;20069;-77
2023/11/27 03:12:46;;;;;;;0.50;0.50;;;;;;;0.23;100.00;97258.94;5134590;27;20023;-77
2023/11/27 03:15:12;;;;;;;0.32;0.32;;;;;;;0.40;100.00;97266.38;5116545;27;20032;-77
2023/11/27 03:17:38;;;;;;;0.57;0.57;;;;;;;0.34;100.00;97267.38;5094699;27;20091;-78
2023/11/27 03:20:04;;;;;;;0.60;0.60;;;;;;;0.30;100.00;97267.53;5116349;27;20054;-77
2023/11/27 03:22:33;;;;;;;0.40;0.40;;;;;;;0.31;100.00;97271.84;5099018;27;20066;-77
2023/11/27 03:24:59;;;;;;;0.45;0.45;;;;;;;0.24;100.00;97258.03;5116200;27;20023;-78
2023/11/27 03:27:24;;;;;;;0.50;0.50;;;;;;;0.26;100.00;97269.38;5079756;28;20035;-77
2023/11/27 03:29:50;;;;;;;0.22;0.22;;;;;;;0.27;100.00;97276.38;5119650;27;20114;-77
2023/11/27 03:32:15;;;;;;;0.60;0.60;;;;;;;0.28;100.00;97257.03;5115538;27;20019;-77
2023/11/27 03:34:43;;;;;;;0.20;0.20;;;;;;;0.30;100.00;97265.75;5103379;28;20028;-77
2023/11/27 03:37:09;;;;;;;0.38;0.38;;;;;;;0.35;100.00;97269.13;5095269;27;20034;-77
2023/11/27 03:39:35;;;;;;;0.35;0.35;;;;;;;0.29;100.00;97256.13;5115906;27;20022;-77
2023/11/27 03:42:01;;;;;;;0.20;0.20;;;;;;;0.38;100.00;97273.44;5115779;27;20375;-77
2023/11/27 03:44:26;;;;;;;0.30;0.30;;;;;;;0.39;100.00;97260.25;5110099;27;20030;-76
2023/11/27 03:46:52;;;;;;;0.90;0.90;;;;;;;0.41;100.00;97263.69;5115827;27;20031;-77
2023/11/27 03:49:18;;;;;;;0.82;0.82;;;;;;;0.41;100.00;97268.97;5092314;28;20043;-77
2023/11/27 03:51:43;;;;;;;0.80;0.80;;;;;;;0.39;100.00;97265.53;5078437;28;20116;-77
2023/11/27 03:54:11;;;;;;;0.43;0.43;;;;;;;0.38;100.00;97263.78;5095116;28;20031;-77
2023/11/27 03:56:37;;;;;;;0.50;0.50;;;;;;;0.47;100.00;97271.44;5078273;28;20171;-78
2023/11/27 03:59:03;;;;;;;0.22;0.22;;;;;;;0.41;100.00;97268.97;5078263;28;20027;-77
2023/11/27 04:01:28;;;;;;;0.40;0.40;;;;;;;0.40;100.00;97275.13;5077950;28;20034;-77
2023/11/27 04:03:54;;;;;;;0.20;0.20;;;;;;;0.36;100.00;97276.13;5078059;28;20031;-78
2023/11/27 04:06:25;;;;;;;0.40;0.40;;;;;;;0.40;100.00;97283.00;5086676;27;20106;-78
2023/11/27 04:08:51;;;;;;;0.70;0.70;;;;;;;0.42;100.00;97281.22;5115339;27;20049;-78
2023/11/27 04:11:18;;;;;;;0.20;0.20;;;;;;;0.38;100.00;97284.81;5115065;27;20031;-78
2023/11/27 04:13:44;;;;;;;0.35;0.35;;;;;;;0.39;100.00;97286.56;5115176;27;20114;-78
2023/11/27 04:16:10;;;;;;;0.45;0.45;;;;;;;0.37;100.00;97296.25;5133386;27;20109;-78
2023/11/27 04:18:36;;;;;;;2.20;1.08;;;;;;;0.33;100.00;97297.25;5098101;27;20024;-78
2023/11/27 04:21:02;;;;;;;1.33;0.88;;;;;;;0.35;100.00;97302.44;5097928;27;20019;-78
2023/11/27 04:23:28;;;;;;;0.30;0.30;;;;;;;0.27;100.00;97292.13;5114971;27;20023;-77
2023/11/27 04:25:54;;;;;;;0.28;0.28;;;;;;;0.32;100.00;97299.91;5081784;28;20466;-78
2023/11/27 04:28:20;;;;;;;1.65;1.10;;;;;;;0.35;100.00;97305.06;5094469;28;20059;-78
2023/11/27 04:30:46;;;;;;;0.50;0.50;;;;;;;0.28;100.00;97292.97;5112631;28;20058;-78
2023/11/27 04:33:14;;;;;;;0.30;0.30;;;;;;;0.17;100.00;97306.41;5110033;27;20095;-80
2023/11/27 04:35:41;;;;;;;1.05;0.98;;;;;;;0.13;100.00;97288.97;5087147;28;20067;-78
2023/11/27 04:38:07;;;;;;;0.30;0.30;;;;;;;0.04;100.00;97289.22;5086425;28;20039;-77
2023/11/27 04:40:34;;;;;;;0.40;0.40;;;;;;;-0.02;100.00;97290.22;5095196;27;20019;-78
2023/11/27 04:43:00;;;;;;;0.30;0.30;;;;;;;-0.12;100.00;97293.09;5089861;28;20034;-78
2023/11/27 04:45:25;;;;;;;0.43;0.43;;;;;;;-0.23;100.00;97301.25;5076287;28;20030;-77
2023/11/27 04:47:51;;;;;;;0.63;0.63;;;;;;;-0.28;100.00;97312.78;5083473;27;20026;-77
2023/11/27 04:50:17;;;;;;;0.63;0.63;;;;;;;-0.37;100.00;97305.97;5093903;28;20054;-78
2023/11/27 04:52:43;;;;;;;0.47;0.47;;;;;;;-0.41;100.00;97316.59;5101412;28;20028;-78
2023/11/27 04:55:10;;;;;;;0.85;0.85;;;;;;;-0.38;100.00;97306.00;5106097;28;20070;-78
2023/11/27 04:57:37;;;;;;;0.43;0.43;;;;;;;-0.36;100.00;97317.34;5110905;28;20111;-77
2023/11/27 05:00:03;;;;;;;0.40;0.40;;;;;;;-0.41;100.00;97322.72;5093970;28;20120;-77
2023/11/27 05:02:29;;;;;;;0.50;0.50;;;;;;;-0.41;100.00;97324.47;5110564;28;20043;-77
2023/11/27 05:04:54;;;;;;;2.15;0.95;;;;;;;-0.37;100.00;97323.50;5098868;28;20047;-74
2023/11/27 05:07:20;;;;;;;1.08;0.98;;;;;;;-0.31;100.00;97320.75;5100473;28;20039;-75
2023/11/27 05:09:46;;;;;;;0.35;0.35;;;;;;;-0.29;100.00;97319.81;5088495;28;20035;-74
2023/11/27 05:12:12;;;;;;;1.00;1.00;;;;;;;-0.25;100.00;97321.47;5090341;28;20122;-71
2023/11/27 05:14:37;;;;;;;0.40;0.40;;;;;;;-0.19;100.00;97330.97;5090129;28;20036;-79
2023/11/27 05:17:03;;;;;;;0.50;0.50;;;;;;;-0.13;100.00;97322.94;5073230;28;20024;-79
2023/11/27 05:19:30;;;;;;;0.45;0.45;;;;;;;-0.02;100.00;97320.91;5109185;28;20023;-79
2023/11/27 05:21:56;;;;;;;1.08;1.08;;;;;;;-0.04;100.00;97314.84;5090215;28;20399;-79
2023/11/27 05:24:21;;;;;;;0.60;0.60;;;;;;;0.04;100.00;97315.50;5088274;28;20460;-78
2023/11/27 05:26:47;;;;;;;0.85;0.85;;;;;;;0.07;100.00;97315.44;5074725;28;20035;-79
2023/11/27 05:29:14;;;;;;;1.13;0.70;;;;;;;0.13;100.00;97315.28;5090019;28;20028;-80
2023/11/27 05:31:39;;;;;;;0.50;0.50;;;;;;;0.21;100.00;97317.72;5101996;28;20034;-79
2023/11/27 05:34:05;;;;;;;0.30;0.30;;;;;;;0.33;100.00;97327.94;5102226;28;20028;-80
2023/11/27 05:36:31;;;;;;;0.65;0.65;;;;;;;0.33;100.00;97320.91;5085447;28;20028;-80
2023/11/27 05:38:57;;;;;;;0.85;0.73;;;;;;;0.40;100.00;97335.59;5078463;28;20100;-80
2023/11/27 05:41:22;;;;;;;0.50;0.50;;;;;;;0.31;100.00;97325.31;5092219;28;20039;-80
2023/11/27 05:43:49;;;;;;;0.57;0.57;;;;;;;0.36;100.00;97333.97;5090840;28;20039;-79
2023/11/27 05:46:14;;;;;;;0.47;0.47;;;;;;;0.45;100.00;97336.38;5092989;28;20451;-80
2023/11/27 05:48:40;;;;;;;0.43;0.43;;;;;;;0.48;100.00;97333.66;5111410;27;20093;-79
2023/11/27 05:51:07;;;;;;;1.45;0.65;;;;;;;0.46;100.00;97345.13;5096407;28;20091;-79
2023/11/27 05:53:32;;;;;;;0.38;0.38;;;;;;;0.51;100.00;97344.13;5091140;28;20119;-80
2023/11/27 05:55:58;;;;;;;2.60;2.38;;;;;;;0.58;100.00;97336.06;5084583;28;20028;-79
2023/11/27 05:58:24;;;;;;;1.98;1.88;;;;;;;0.60;100.00;97350.03;5080289;28;20461;-80
2023/11/27 06:00:51;;;;;;;1.80;1.70;;;;;;;0.64;100.00;97343.78;5085791;28;20051;-80
2023/11/27 06:03:16;;;;;;;0.30;0.30;;;;;;;0.66;100.00;97349.88;5096280;27;20482;-80
2023/11/27 06:05:42;;;;;;;0.88;0.88;;;;;;;0.69;100.00;97350.66;5100496;27;20116;-79
2023/11/27 06:08:08;;;;;;;2.70;2.38;;;;;;;0.71;100.00;97366.41;5097516;27;20027;-80
2023/11/27 06:10:33;;;;;;;1.35;1.13;;;;;;;0.70;100.00;97359.41;5084838;28;20031;-80
2023/11/27 06:12:59;;;;;;;1.05;0.82;;;;;;;0.66;100.00;97353.38;5084980;27;20035;-79
2023/11/27 06:15:25;;;;;;;1.67;1.58;;;;;;;0.74;100.00;97364.53;5097440;27;20039;-80
2023/11/27 06:17:50;;;;;;;7.57;3.10;;;;;;;0.76;100.00;97365.38;5090815;28;20521;-80
2023/11/27 06:20:16;;;;;;;1.75;1.30;;;;;;;0.70;100.00;97364.69;5086691;27;20172;-80
2023/11/27 06:22:42;;;;;;;0.82;0.82;;;;;;;0.69;100.00;97360.31;5106550;27;20054;-79
2023/11/27 06:25:08;;;;;;;3.00;2.53;;;;;;;0.72;100.00;97352.34;5093687;28;20028;-80
2023/11/27 06:27:34;;;;;;;4.53;3.47;;;;;;;0.77;100.00;97355.72;5094573;27;20034;-80
2023/11/27 06:29:59;;;;;;;0.57;0.57;;;;;;;0.76;100.00;97338.19;5095472;28;20027;-80
2023/11/27 06:32:25;;;;;;;1.27;1.17;;;;;;;0.74;100.00;97346.13;5096499;28;20093;-80
2023/11/27 06:34:51;;;;;;;1.58;0.88;;;;;;;0.82;100.00;97343.28;5091023;28;20023;-81
2023/11/27 06:37:17;;;;;;;0.80;0.80;;;;;;;0.95;100.00;97331.53;5114485;27;20062;-81
2023/11/27 06:39:43;;;;;;;2.50;2.28;;;;;;;1.41;100.00;97329.31;5098128;27;20120;-80
2023/11/27 06:42:12;;;;;;;0.63;0.63;;;;;;;2.74;100.00;97319.69;5104957;28;20066;-80
2023/11/27 06:44:40;;;;;;;1.88;1.70;;;;;;;4.06;100.00;97320.00;5079824;28;20062;-80
2023/11/27 06:47:06;;;;;;;15.93;10.43;;;;;;;4.91;100.00;97319.97;5087714;28;20114;-81
2023/11/27 06:49:32;;;;;;;5.38;3.17;;;;;;;5.78;97.46;97313.38;5095589;28;20037;-81
2023/11/27 06:51:58;;;;;;;1.30;1.05;;;;;;;6.23;87.85;97299.72;5075882;28;20100;-80
2023/11/27 06:54:24;;;;;;;1.77;1.58;;;;;;;6.53;79.68;97303.53;5075836;28;20055;-81
2023/11/27 06:56:51;;;;;;;4.63;1.88;;;;;;;6.89;76.81;97301.66;5092826;28;20031;-81
2023/11/27 06:59:18;;;;;;;1.77;1.52;;;;;;;6.76;73.29;97305.03;5075893;28;20016;-80
2023/11/27 07:01:44;;;;;;;16.15;8.95;;;;;;;6.87;73.75;97303.53;5076011;28;20475;-80
2023/11/27 07:04:10;;;;;;;8.93;4.90;;;;;;;7.46;68.51;97296.88;5075976;28;20055;-81
2023/11/27 07:06:39;;;;;;;17.98;9.65;;;;;;;7.53;67.99;97304.47;5075295;28;20024;-81
2023/11/27 07:09:05;;;;;;;2.90;1.73;;;;;;;7.56;66.71;97299.00;5075055;28;20024;-80
2023/11/27 07:11:32;;;;;;;1.70;1.55;;;;;;;7.63;66.20;97296.81;5092603;28;20056;-80
2023/11/27 07:14:01;;;;;;;0.75;0.75;;;;;;;7.99;67.46;97304.63;5075347;28;20016;-82
2023/11/27 07:16:28;;;;;;;1.45;0.98;;;;;;;8.26;62.36;97304.88;5075525;28;20030;-81
2023/11/27 07:18:55;;;;;;;1.17;0.52;;;;;;;7.70;62.52;97308.88;5075304;28;20544;-81
2023/11/27 07:21:20;;;;;;;0.47;0.47;;;;;;;7.91;64.93;97321.00;5075398;28;20031;-81
2023/11/27 07:23:46;;;;;;;0.57;0.57;;;;;;;7.75;63.09;97320.16;5092321;28;20077;-81
2023/11/27 07:26:11;;;;;;;2.42;0.57;;;;;;;7.82;62.50;97328.63;5075264;28;20479;-81
2023/11/27 07:28:40;;;;;;;1.90;1.80;;;;;;;7.18;62.89;97325.88;5092264;28;20024;-82
2023/11/27 07:31:07;;;;;;;0.63;0.43;;;;;;;7.56;65.43;97341.56;5075471;28;20020;-81
2023/11/27 07:36:16;;;;;;;2.80;1.50;;;;;;;7.32;64.67;97350.81;5089436;28;20031;-81
2023/11/27 07:38:42;;;;;;;1.60;1.13;;;;;;;8.03;61.96;97341.63;5075245;28;20024;-81
2023/11/27 07:41:08;;;;;;;0.20;0.20;;;;;;;8.36;60.58;97332.75;5074922;28;20043;-81
2023/11/27 07:43:34;;;;;;;1.52;1.20;;;;;;;8.61;57.66;97322.41;5075078;28;20032;-81
2023/11/27 07:46:01;;;;;;;3.42;1.75;;;;;;;9.41;56.16;97317.59;5074720;28;20020;-81
2023/11/27 07:48:27;;;;;;;1.27;1.17;;;;;;;9.77;54.91;97312.66;5074760;28;20035;-81
2023/11/27 07:50:52;;;;;;;0.50;0.50;;;;;;;10.27;51.22;97313.97;5093866;28;20036;-81
2023/11/27 07:53:24;;;;;;;2.13;1.13;;;;;;;10.66;51.50;97308.69;5080375;28;20115;-81
2023/11/27 07:55:49;;;;;;;0.70;0.70;;;;;;;10.63;50.88;97308.00;5086214;28;20096;-82
2023/11/27 07:58:15;;;;;;;2.83;0.98;;;;;;;10.53;50.77;97312.25;5082896;28;20036;-80
2023/11/27 08:00:41;;;;;;;0.60;0.60;;;;;;;10.88;51.04;97313.47;5074624;28;20024;-82
2023/11/27 08:03:07;;;;;;;1.08;0.95;;;;;;;11.12;49.85;97309.13;5094302;28;20509;-82
2023/11/27 08:05:34;;;;;;;1.77;1.08;;;;;;;11.48;48.47;97303.06;5085992;28;20016;-82
2023/11/27 08:08:00;;;;;;;1.27;1.13;;;;;;;11.21;48.43;97316.53;5074778;28;20035;-82
2023/11/27 08:10:28;;;;;;;0.70;0.70;;;;;;;11.35;48.33;97296.84;5090641;28;20023;-82
2023/11/27 08:12:54;;;;;;;0.80;0.80;;;;;;;11.63;46.67;97287.75;5089345;28;20032;-81
2023/11/27 08:15:19;;;;;;;1.02;0.95;;;;;;;11.59;46.80;97279.06;5101922;28;20130;-81
2023/11/27 08:17:46;;;;;;;0.90;0.73;;;;;;;10.80;47.03;97283.66;5091422;28;20116;-81
2023/11/27 08:20:14;;;;;;;4.25;2.03;;;;;;;10.25;47.61;97287.31;5107057;28;20024;-81
2023/11/27 08:22:43;;;;;;;7.40;2.65;;;;;;;10.56;48.59;97277.28;5084751;28;20054;-79
2023/11/27 08:25:14;;;;;;;2.28;1.98;;;;;;;11.49;46.12;97282.50;5088763;28;20475;-79
2023/11/27 08:27:42;;;;;;;1.17;0.80;;;;;;;10.48;46.07;97287.63;5084384;28;20030;-79
2023/11/27 08:30:10;;;;;;;1.05;0.98;;;;;;;10.37;48.61;97293.66;5103556;28;20031;-79
2023/11/27 08:32:36;;;;;;;0.70;0.47;;;;;;;10.94;47.31;97297.00;5099696;28;20028;-79
2023/11/27 08:35:04;;;;;;;2.03;1.58;;;;;;;11.54;45.56;97285.69;5087690;28;20031;-80
2023/11/27 08:37:35;;;;;;;2.55;0.85;;;;;;;12.00;45.63;97286.03;5095836;28;20399;-80
2023/11/27 08:40:03;;;;;;;6.20;1.00;;;;;;;12.06;44.41;97282.91;5085768;28;20024;-79
2023/11/27 08:42:29;;;;;;;1.30;0.43;;;;;;;11.44;44.43;97272.13;5071912;28;20039;-80
2023/11/27 08:44:54;;;;;;;1.13;0.70;;;;;;;11.13;44.70;97284.09;5087634;28;20028;-80
2023/11/27 08:47:20;;;;;;;0.25;0.22;;;;;;;10.81;44.50;97280.03;5088318;28;20035;-80
2023/11/27 08:49:46;;;;;;;0.73;0.68;;;;;;;11.12;46.26;97293.06;5088737;28;20040;-80
2023/11/27 08:52:12;;;;;;;0.52;0.52;;;;;;;11.69;44.82;97290.81;5103685;28;20032;-80
2023/11/27 08:54:38;;;;;;;0.10;0.10;;;;;;;11.86;44.36;97287.88;5101811;28;20024;-80
2023/11/27 08:57:07;;;;;;;3.03;1.35;;;;;;;11.89;44.03;97292.13;5079541;28;20595;-80
2023/11/27 08:59:32;;;;;;;0.30;0.30;;;;;;;12.39;43.63;97286.69;5092017;28;20028;-79
2023/11/27 09:01:58;;;;;;;0.32;0.32;;;;;;;12.39;41.44;97278.63;5081688;28;20027;-80
2023/11/27 09:04:24;;;;;;;1.67;1.08;;;;;;;11.84;42.02;97273.69;5085136;28;20549;-82
2023/11/27 09:06:50;;;;;;;1.33;0.70;;;;;;;11.16;45.37;97288.38;5084511;28;20036;-80
2023/11/27 09:09:15;;;;;;;0.80;0.60;;;;;;;12.06;42.54;97275.69;5073307;28;20415;-79
2023/11/27 09:11:41;;;;;;;0.20;0.20;;;;;;;11.46;42.84;97263.94;5081384;28;20023;-79
2023/11/27 09:14:07;;;;;;;0.75;0.75;;;;;;;11.69;44.17;97264.03;5101827;28;20030;-79
2023/11/27 09:16:32;;;;;;;0.85;0.73;;;;;;;12.03;42.21;97267.88;5093967;28;20028;-80
2023/11/27 09:18:58;;;;;;;0.63;0.55;;;;;;;11.19;43.17;97264.91;5093378;28;20366;-80
2023/11/27 09:21:23;;;;;;;0.25;0.25;;;;;;;11.34;43.46;97257.63;5088064;28;20034;-79
2023/11/27 09:23:49;;;;;;;0.22;0.22;;;;;;;10.60;43.60;97242.22;5093179;28;20468;-79
2023/11/27 09:26:16;;;;;;;0.98;0.50;;;;;;;11.02;43.02;97243.78;5093105;28;20100;-79
2023/11/27 09:28:49;;;;;;;0.75;0.65;;;;;;;12.11;42.46;97244.06;5082063;28;20023;-79
2023/11/27 09:31:15;;;;;;;1.38;1.27;;;;;;;12.43;41.66;97226.44;5092943;28;20027;-80
2023/11/27 09:33:41;;;;;;;2.78;0.45;;;;;;;12.95;40.69;97235.94;5088676;28;20031;-80
2023/11/27 09:36:13;;;;;;;0.40;0.40;;;;;;;13.35;40.15;97226.53;5098279;28;20085;-80
2023/11/27 09:38:40;;;;;;;1.75;0.70;;;;;;;13.55;39.48;97220.47;5075663;28;20024;-80
2023/11/27 09:41:07;;;;;;;0.73;0.55;;;;;;;14.73;39.31;97225.19;5075513;28;20460;-80
2023/11/27 09:43:34;;;;;;;4.38;1.25;;;;;;;15.41;37.84;97211.25;5072770;28;20032;-80
2023/11/27 09:46:00;;;;;;;0.75;0.52;;;;;;;14.99;37.16;97215.75;5099907;28;20027;-80
2023/11/27 09:48:27;;;;;;;0.28;0.28;;;;;;;14.76;36.50;97203.41;5089300;28;20119;-79
2023/11/27 09:50:57;;;;;;;0.40;0.40;;;;;;;14.43;39.06;97228.56;5077748;28;20400;-80
2023/11/27 09:53:27;;;;;;;0.75;0.75;;;;;;;14.55;37.09;97211.44;5069014;28;20052;-81
2023/11/27 09:55:54;;;;;;;2.15;0.68;;;;;;;14.29;38.50;97216.25;5057732;28;20035;-81
2023/11/27 09:58:21;;;;;;;0.98;0.63;;;;;;;14.19;37.71;97209.91;5069839;28;20040;-81
2023/11/27 10:00:49;;;;;;;0.20;0.20;;;;;;;14.31;38.31;97213.41;5072367;28;20067;-80
2023/11/27 10:03:14;;;;;;;0.52;0.50;;;;;;;14.43;37.30;97196.28;5064076;28;20027;-80
2023/11/27 10:05:43;;;;;;;0.20;0.20;;;;;;;14.26;37.14;97200.34;5060230;28;20021;-79
2023/11/27 10:08:09;;;;;;;0.10;0.10;;;;;;;13.64;39.00;97213.50;5076653;28;20043;-80
2023/11/27 10:10:34;;;;;;;0.50;0.50;;;;;;;14.01;38.22;97214.94;5075095;28;20475;-80
2023/11/27 10:13:06;;;;;;;1.40;0.90;;;;;;;14.20;38.55;97208.94;5093978;28;20039;-80
2023/11/27 10:15:31;;;;;;;0.30;0.30;;;;;;;14.65;39.44;97226.69;5078934;28;20106;-80
2023/11/27 10:17:59;;;;;;;0.30;0.30;;;;;;;14.57;37.95;97213.03;5071796;28;20128;-80
2023/11/27 10:20:25;;;;;;;1.02;0.43;;;;;;;13.98;37.85;97206.28;5062538;28;20024;-83
2023/11/27 10:22:52;;;;;;;0.30;0.30;;;;;;;14.10;38.24;97216.03;5064649;28;20036;-80
2023/11/27 10:25:20;;;;;;;0.30;0.30;;;;;;;14.42;38.08;97202.66;5080491;28;20059;-81
2023/11/27 10:27:46;;;;;;;1.02;0.70;;;;;;;15.88;37.81;97199.00;5060918;28;20028;-81
2023/11/27 10:30:20;;;;;;;5.57;1.75;;;;;;;15.77;34.76;97191.00;5060092;28;20025;-82
2023/11/27 10:32:48;;;;;;;0.50;0.50;;;;;;;16.51;35.34;97197.75;5065719;28;20063;-81
2023/11/27 10:35:15;;;;;;;0.45;0.25;;;;;;;16.65;33.67;97183.84;5060768;28;20043;-79
2023/11/27 10:37:42;;;;;;;0.55;0.30;;;;;;;16.97;34.72;97189.00;5074223;28;20752;-80
2023/11/27 10:40:15;;;;;;;0.30;0.30;;;;;;;17.27;34.43;97186.09;5068291;28;20112;-81
2023/11/27 10:42:48;;;;;;;0.20;0.20;;;;;;;16.25;32.94;97175.81;5069728;28;20119;-80
2023/11/27 10:45:18;;;;;;;0.98;0.20;;;;;;;15.84;33.55;97168.78;5071164;28;20035;-81
2023/11/27 10:47:48;;;;;;;1.80;1.58;;;;;;;16.09;34.36;97175.47;5067064;28;20028;-80
2023/11/27 10:50:15;;;;;;;2.45;1.75;;;;;;;16.43;33.99;97165.19;5076680;28;20052;-80
2023/11/27 10:52:44;;;;;;;2.45;1.60;;;;;;;14.96;35.68;97183.69;5072022;28;20043;-79
2023/11/27 10:55:19;;;;;;;2.13;1.73;;;;;;;15.12;35.71;97166.09;5055455;28;20066;-80
2023/11/27 10:57:49;;;;;;;7.53;4.82;;;;;;;15.34;35.48;97175.00;5071741;28;20431;-81
2023/11/27 11:00:29;;;;;;;28.65;16.27;;;;;;;15.27;35.31;97174.69;5061654;28;20476;-80
2023/11/27 11:03:03;;;;;;;2.90;2.20;;;;;;;15.46;35.05;97190.97;5073344;28;20020;-80
2023/11/27 11:05:35;;;;;;;7.15;4.22;;;;;;;15.76;34.89;97183.91;5055071;28;20091;-80
2023/11/27 11:08:03;;;;;;;8.45;4.55;;;;;;;15.64;35.13;97167.81;5054888;28;20024;-80
2023/11/27 11:10:31;;;;;;;6.15;4.00;;;;;;;15.93;36.02;97180.56;5054702;28;20028;-80
2023/11/27 11:12:59;;;;;;;5.10;3.17;;;;;;;16.36;35.05;97173.00;5071608;28;20109;-80
2023/11/27 11:15:54;;;;;;;3.63;2.30;;;;;;;16.76;33.42;97164.81;5071673;28;20052;-80
2023/11/27 11:18:43;;;;;;;3.47;2.20;;;;;;;16.88;33.44;97162.81;5061644;28;20028;-81
2023/11/27 11:21:14;;;;;;;3.60;2.55;;;;;;;16.78;32.99;97152.88;5053961;28;20039;-80
2023/11/27 11:24:03;;;;;;;2.67;2.20;;;;;;;16.88;33.56;97150.19;5088172;28;20080;-80
2023/11/27 11:26:51;;;;;;;3.70;2.63;;;;;;;16.63;33.84;97148.91;5088175;28;20713;-80
2023/11/27 11:29:33;;;;;;;4.35;2.30;;;;;;;16.52;34.29;97154.38;5054432;28;20528;-80
2023/11/27 11:32:08;;;;;;;4.53;2.22;;;;;;;16.22;34.64;97158.06;5071022;28;20036;-80